Decoded Metar for GCHI (HIERRO in SPAIN) (IATA:VDE) | Meteo·Mobile Aviation Weather
aviador You're here:

GCHI Decoded Metar

HIERRO in SPAIN
Report Time2019-07-16 10:30:00
UTC Time2019-07-16 10:47:44
Flight Rules vfr VFR
Wind360° at 20 kt
W.Decomp.*RWY 34: 17.8 kt HW 9.1 kt RCW
Visibility9999 m
Phenomena:N/A
Clouds:Few 030 Hf
Expected CloudBase > 2,400 ft AGL from Temp-Dew spread
CeilingNone
Temp24°C (ISA +9)
Dew Point18°C (69% RH)
AAT19.6°C
QNH1017 hPa
Density Alt1,302 ft
Elevation98 ft
Report Wrong Elevation
Raw Report
GCHI 161030Z 36020KT 9999 FEW030 24/18 Q1017=

Extra information for GCHI:More info

Metar Taf Metar & Taf Last 4 Metars F.Rules Stats Wind Profile Meteogram Temp Stats Airport Information Weather charts Add Link Nearby VenuesMetar ALERT Operation Metar Decoded Social comments